createdAt,value
2019-02-14T00:00:38.633Z,17.10
2019-02-14T00:03:08.673Z,14.60
2019-02-14T00:05:38.709Z,16.80
2019-02-14T00:08:10.022Z,17.27
2019-02-14T00:10:46.106Z,16.80
2019-02-14T00:13:15.046Z,20.83
2019-02-14T00:15:46.120Z,16.87
2019-02-14T00:18:17.216Z,19.77
2019-02-14T00:20:48.325Z,20.37
2019-02-14T00:23:22.451Z,23.00
2019-02-14T00:25:54.021Z,24.00
2019-02-14T00:28:24.092Z,20.33
2019-02-14T00:30:55.478Z,25.43
2019-02-14T00:33:29.696Z,22.07
2019-02-14T00:36:01.413Z,21.80
2019-02-14T00:38:34.422Z,16.10
2019-02-14T00:41:05.725Z,20.20
2019-02-14T00:43:38.598Z,18.97
2019-02-14T00:46:06.982Z,14.87
2019-02-14T00:48:35.380Z,14.23
2019-02-14T00:51:06.532Z,18.70
2019-02-14T00:53:34.938Z,19.73
2019-02-14T00:56:03.576Z,20.57
2019-02-14T00:58:34.917Z,19.20
2019-02-14T01:01:03.305Z,24.97
2019-02-14T01:03:35.077Z,29.30
2019-02-14T01:06:03.769Z,23.07
2019-02-14T01:08:36.635Z,18.90
2019-02-14T01:11:05.100Z,18.90
2019-02-14T01:13:36.476Z,21.20
2019-02-14T01:16:05.525Z,18.60
2019-02-14T01:18:38.773Z,17.47
2019-02-14T01:21:07.181Z,16.57
2019-02-14T01:23:35.565Z,19.53
2019-02-14T01:26:06.671Z,23.43
2019-02-14T01:28:35.065Z,27.47
2019-02-14T01:31:05.095Z,20.47
2019-02-14T01:33:33.489Z,13.40
2019-02-14T01:36:07.866Z,16.47
2019-02-14T01:38:47.511Z,12.47
2019-02-14T01:41:20.786Z,13.77
2019-02-14T01:43:49.173Z,16.43
2019-02-14T01:46:17.737Z,15.90
2019-02-14T01:48:49.105Z,19.57
2019-02-14T01:51:25.817Z,18.40
2019-02-14T01:53:55.881Z,14.80
2019-02-14T01:56:24.268Z,17.97
2019-02-14T01:59:01.417Z,19.87
2019-02-14T02:01:31.333Z,13.47
2019-02-14T02:04:05.489Z,15.37
2019-02-14T02:06:35.529Z,14.00
2019-02-14T02:09:07.885Z,15.47
2019-02-14T02:11:37.218Z,10.87
2019-02-14T02:14:08.448Z,13.90
2019-02-14T02:16:37.049Z,15.17
2019-02-14T02:19:08.537Z,10.87
2019-02-14T02:21:42.833Z,13.23
2019-02-14T02:24:11.230Z,14.07
2019-02-14T02:26:39.625Z,12.47
2019-02-14T02:29:10.942Z,12.33
2019-02-14T02:31:43.633Z,16.43
2019-02-14T02:34:12.021Z,17.77
2019-02-14T02:36:48.046Z,15.07
2019-02-14T02:39:16.441Z,18.23
2019-02-14T02:41:47.809Z,15.67
2019-02-14T02:44:16.461Z,12.73
2019-02-14T02:46:45.085Z,17.17
2019-02-14T02:49:13.757Z,16.77
2019-02-14T02:51:45.135Z,19.40
2019-02-14T02:54:15.233Z,11.33
2019-02-14T02:56:43.674Z,10.93
2019-02-14T02:59:15.501Z,12.13
2019-02-14T03:01:54.272Z,11.63
2019-02-14T03:04:23.102Z,10.60
2019-02-14T03:06:51.494Z,11.37
2019-02-14T03:09:24.471Z,11.70
2019-02-14T03:11:55.562Z,11.63
2019-02-14T03:14:24.045Z,10.13
2019-02-14T03:16:55.165Z,10.97
2019-02-14T03:19:29.669Z,13.50
2019-02-14T03:21:59.946Z,10.77
2019-02-14T03:24:44.945Z,9.83
2019-02-14T03:27:17.037Z,11.63
2019-02-14T03:29:45.385Z,11.03
2019-02-14T03:32:13.783Z,10.10
2019-02-14T03:34:43.805Z,14.47
2019-02-14T03:37:17.897Z,8.93
2019-02-14T03:39:46.598Z,9.73
2019-02-14T03:42:18.033Z,10.13
2019-02-14T03:44:50.251Z,11.50
2019-02-14T03:47:21.455Z,13.63
2019-02-14T03:50:02.053Z,9.27
2019-02-14T03:52:31.229Z,11.87
2019-02-14T03:55:05.217Z,12.57
2019-02-14T03:57:36.429Z,9.83
2019-02-14T04:00:10.998Z,11.87
2019-02-14T04:02:39.387Z,12.13
2019-02-14T04:05:13.069Z,15.13
2019-02-14T04:07:46.240Z,16.80
2019-02-14T04:10:18.790Z,14.87
2019-02-14T04:12:47.185Z,14.07
2019-02-14T04:15:18.414Z,17.37
2019-02-14T04:17:48.505Z,14.17
2019-02-14T04:20:19.579Z,15.53
2019-02-14T04:22:52.498Z,10.90
2019-02-14T04:25:24.740Z,20.10
2019-02-14T04:27:59.158Z,21.83
2019-02-14T04:30:42.181Z,18.57
2019-02-14T04:33:12.210Z,20.33
2019-02-14T04:35:43.565Z,26.30
2019-02-14T04:38:17.922Z,21.73
2019-02-14T04:40:46.356Z,18.73
2019-02-14T04:43:16.039Z,20.47
2019-02-14T04:45:44.665Z,21.90
2019-02-14T04:48:15.965Z,18.47
2019-02-14T04:50:48.997Z,21.07
2019-02-14T04:53:29.142Z,23.40
2019-02-14T04:56:00.561Z,23.83
2019-02-14T04:58:28.982Z,15.33
2019-02-14T05:01:01.553Z,15.43
2019-02-14T05:03:39.335Z,17.90
2019-02-14T05:06:12.389Z,21.90
2019-02-14T05:08:50.028Z,27.50
2019-02-14T05:11:21.094Z,25.50
2019-02-14T05:13:50.795Z,19.90
2019-02-14T05:16:24.023Z,19.97
2019-02-14T05:18:52.908Z,17.50
2019-02-14T05:21:22.828Z,18.07
2019-02-14T05:23:55.546Z,16.77
2019-02-14T05:26:30.287Z,12.53
2019-02-14T05:28:58.617Z,12.87
2019-02-14T05:31:27.013Z,14.83
2019-02-14T05:33:58.369Z,12.90
2019-02-14T05:36:29.729Z,11.60
2019-02-14T05:38:58.119Z,19.03
2019-02-14T05:41:29.320Z,13.30
2019-02-14T05:43:57.701Z,13.03
2019-02-14T05:46:27.733Z,9.87
2019-02-14T05:49:03.827Z,14.53
2019-02-14T05:51:30.869Z,16.87
2019-02-14T05:53:59.253Z,12.20
2019-02-14T05:56:40.620Z,16.50
2019-02-14T05:59:23.297Z,16.73
2019-02-14T06:01:51.701Z,15.20
2019-02-14T06:04:20.326Z,14.73
2019-02-14T06:07:00.973Z,19.67
2019-02-14T06:09:25.053Z,19.43
2019-02-14T06:11:57.942Z,17.77
2019-02-14T06:14:26.372Z,21.47
2019-02-14T06:16:56.413Z,29.20
2019-02-14T06:19:29.281Z,27.47
2019-02-14T06:21:58.137Z,29.33
2019-02-14T06:24:37.741Z,29.80
2019-02-14T06:27:12.685Z,28.77
2019-02-14T06:29:46.158Z,23.23
2019-02-14T06:32:14.792Z,23.30
2019-02-14T06:34:43.177Z,22.50
2019-02-14T06:37:12.109Z,26.67
2019-02-14T06:39:40.498Z,24.93
2019-02-14T06:42:14.648Z,20.90
2019-02-14T06:44:45.964Z,26.20
2019-02-14T06:47:16.010Z,29.10
2019-02-14T06:49:44.396Z,33.33
2019-02-14T06:52:15.815Z,22.67
2019-02-14T06:54:44.212Z,22.03
2019-02-14T06:57:12.709Z,24.87
2019-02-14T06:59:41.102Z,24.07
2019-02-14T07:02:11.036Z,22.23
2019-02-14T07:04:43.697Z,17.83
2019-02-14T07:07:18.634Z,18.43
2019-02-14T07:09:48.425Z,17.73
2019-02-14T07:12:19.477Z,13.57
2019-02-14T07:14:48.830Z,18.20
2019-02-14T07:17:17.222Z,19.47
2019-02-14T07:19:45.657Z,22.97
2019-02-14T07:22:15.693Z,20.33
2019-02-14T07:24:45.720Z,19.50
2019-02-14T07:27:19.621Z,23.80
2019-02-14T07:29:48.014Z,21.43
2019-02-14T07:32:16.403Z,21.60
2019-02-14T07:34:47.782Z,28.33
2019-02-14T07:37:16.181Z,26.30
2019-02-14T07:39:45.597Z,24.90
2019-02-14T07:42:17.036Z,26.43
2019-02-14T07:44:46.732Z,17.53
2019-02-14T07:47:27.165Z,20.07
2019-02-14T07:50:00.339Z,19.30
2019-02-14T07:52:30.979Z,20.23
2019-02-14T07:55:00.943Z,20.03
2019-02-14T07:57:32.070Z,20.70
2019-02-14T08:00:05.164Z,15.70
2019-02-14T08:02:33.549Z,19.07
2019-02-14T08:05:03.593Z,20.37
2019-02-14T08:07:36.025Z,18.10
2019-02-14T08:10:07.664Z,21.23
2019-02-14T08:12:36.061Z,13.73
2019-02-14T08:15:06.773Z,14.53
2019-02-14T08:17:35.160Z,15.27
2019-02-14T08:20:05.754Z,14.10
2019-02-14T08:22:34.465Z,15.23
2019-02-14T08:25:02.893Z,18.43
2019-02-14T08:27:34.353Z,22.00
2019-02-14T08:30:06.986Z,22.80
2019-02-14T08:32:36.437Z,26.80
2019-02-14T08:35:08.305Z,26.00
2019-02-14T08:37:45.151Z,22.90
2019-02-14T08:40:11.534Z,25.60
2019-02-14T08:42:39.935Z,18.40
2019-02-14T08:45:10.926Z,18.73
2019-02-14T08:47:42.729Z,17.30
2019-02-14T08:50:14.188Z,19.43
2019-02-14T08:52:45.346Z,18.80
2019-02-14T08:55:15.626Z,18.07
2019-02-14T08:57:48.360Z,17.60
2019-02-14T09:00:21.215Z,14.40
2019-02-14T09:03:00.942Z,19.50
2019-02-14T09:05:37.841Z,13.53
2019-02-14T09:08:08.973Z,20.07
2019-02-14T09:10:40.297Z,17.80
2019-02-14T09:13:16.984Z,18.57
2019-02-14T09:15:42.245Z,15.77
2019-02-14T09:18:10.630Z,19.60
2019-02-14T09:20:41.681Z,15.77
2019-02-14T09:23:14.819Z,20.20
2019-02-14T09:25:42.964Z,16.90
2019-02-14T09:28:18.893Z,20.20
2019-02-14T09:30:47.471Z,16.87
2019-02-14T09:33:20.621Z,14.13
2019-02-14T09:35:55.294Z,14.70
2019-02-14T09:38:26.926Z,13.93
2019-02-14T09:40:58.313Z,14.83
2019-02-14T09:43:29.773Z,13.53
2019-02-14T09:45:56.837Z,12.90
2019-02-14T09:48:27.093Z,14.53
2019-02-14T09:50:58.401Z,18.47
2019-02-14T09:53:33.901Z,16.40
2019-02-14T09:55:59.841Z,18.07
2019-02-14T09:58:28.248Z,14.27
2019-02-14T10:00:56.865Z,15.97
2019-02-14T10:03:28.003Z,15.07
2019-02-14T10:05:58.417Z,13.37
2019-02-14T10:08:29.525Z,15.20
2019-02-14T10:11:01.001Z,20.43
2019-02-14T10:13:32.258Z,19.33
2019-02-14T10:16:00.656Z,13.67
2019-02-14T10:18:30.685Z,15.13
2019-02-14T10:21:02.073Z,12.43
2019-02-14T10:23:30.454Z,14.27
2019-02-14T10:25:58.873Z,20.43
2019-02-14T10:28:27.509Z,14.10
2019-02-14T10:30:55.901Z,16.70
2019-02-14T10:33:24.303Z,11.50
2019-02-14T10:35:52.693Z,12.83
2019-02-14T10:38:26.883Z,13.27
2019-02-14T10:40:56.909Z,14.30
2019-02-14T10:43:25.408Z,14.10
2019-02-14T10:45:56.981Z,14.87
2019-02-14T10:48:28.306Z,14.97
2019-02-14T10:51:00.752Z,14.83
2019-02-14T10:53:29.133Z,15.10
2019-02-14T10:56:00.710Z,15.70
2019-02-14T10:58:36.480Z,16.83
2019-02-14T11:01:12.413Z,13.43
2019-02-14T11:03:45.093Z,16.33
2019-02-14T11:06:16.220Z,14.40
2019-02-14T11:08:44.718Z,15.90
2019-02-14T11:11:15.861Z,14.50
2019-02-14T11:13:51.889Z,15.03
2019-02-14T11:16:21.917Z,17.27
2019-02-14T11:18:57.803Z,16.60
2019-02-14T11:21:28.873Z,14.83
2019-02-14T11:23:57.277Z,18.20
2019-02-14T11:26:25.665Z,13.23
2019-02-14T11:28:56.723Z,12.57
2019-02-14T11:31:26.754Z,15.37
2019-02-14T11:33:56.786Z,13.87
2019-02-14T11:36:26.825Z,15.67
2019-02-14T11:38:58.331Z,14.23
2019-02-14T11:41:26.825Z,14.10
2019-02-14T11:43:56.237Z,12.90
2019-02-14T11:46:24.601Z,13.40
2019-02-14T11:48:55.802Z,14.07
2019-02-14T11:51:27.103Z,13.05
2019-02-14T11:53:55.752Z,14.00
2019-02-14T11:56:30.158Z,15.53
2019-02-14T11:59:02.026Z,13.50
2019-02-14T12:01:32.315Z,13.70
2019-02-14T12:04:00.952Z,15.88
2019-02-14T12:06:38.428Z,14.58
2019-02-14T12:09:07.314Z,12.95
2019-02-14T12:11:41.417Z,12.75
2019-02-14T12:14:12.488Z,11.97
2019-02-14T12:16:41.106Z,12.95
2019-02-14T12:19:14.042Z,12.37
2019-02-14T12:21:42.443Z,13.68
2019-02-14T12:24:14.025Z,14.10
2019-02-14T12:26:45.230Z,12.53
2019-02-14T12:29:13.954Z,12.28
2019-02-14T12:31:43.982Z,13.62
2019-02-14T12:34:12.392Z,13.08
2019-02-14T12:36:40.797Z,15.43
2019-02-14T12:39:12.207Z,14.18
2019-02-14T12:41:40.844Z,15.30
2019-02-14T12:44:11.897Z,17.42
2019-02-14T12:46:40.537Z,20.70
2019-02-14T12:49:08.933Z,16.43
2019-02-14T12:51:40.221Z,19.50
2019-02-14T12:54:11.548Z,15.33
2019-02-14T12:56:39.971Z,19.33
2019-02-14T12:59:12.757Z,17.83
2019-02-14T13:01:41.105Z,19.43
2019-02-14T13:04:09.511Z,19.03
2019-02-14T13:06:40.869Z,22.27
2019-02-14T13:09:19.707Z,20.20
2019-02-14T13:11:45.116Z,19.60
2019-02-14T13:14:14.504Z,19.27
2019-02-14T13:16:44.576Z,14.20
2019-02-14T13:19:13.001Z,17.10
2019-02-14T13:21:43.041Z,16.80
2019-02-14T13:24:14.352Z,16.47
2019-02-14T13:26:45.715Z,20.50
2019-02-14T13:29:14.105Z,17.60
2019-02-14T13:31:42.516Z,19.50
2019-02-14T13:34:10.904Z,20.50
2019-02-14T13:36:39.289Z,22.90
2019-02-14T13:39:11.092Z,16.77
2019-02-14T13:41:39.498Z,22.23
2019-02-14T13:44:12.474Z,16.40
2019-02-14T13:46:45.194Z,19.37
2019-02-14T13:49:13.942Z,17.47
2019-02-14T13:51:48.766Z,15.50
2019-02-14T13:54:18.433Z,19.53
2019-02-14T13:56:54.148Z,18.27
2019-02-14T13:59:26.926Z,20.30
2019-02-14T14:02:01.209Z,17.83
2019-02-14T14:04:35.341Z,18.47
2019-02-14T14:07:14.575Z,18.00
2019-02-14T14:09:42.969Z,16.60
2019-02-14T14:12:11.354Z,20.70
2019-02-14T14:14:39.768Z,21.50
2019-02-14T14:17:08.217Z,20.10
2019-02-14T14:19:39.385Z,22.23
2019-02-14T14:22:13.761Z,20.33
2019-02-14T14:24:42.147Z,23.63
2019-02-14T14:27:10.544Z,19.30
2019-02-14T14:29:38.936Z,20.50
2019-02-14T14:32:16.366Z,18.77
2019-02-14T14:34:50.369Z,18.97
2019-02-14T14:37:18.759Z,21.90
2019-02-14T14:39:48.063Z,18.93
2019-02-14T14:42:33.666Z,19.93
2019-02-14T14:45:10.099Z,20.50
2019-02-14T14:47:44.154Z,20.97
2019-02-14T14:50:15.558Z,16.30
2019-02-14T14:52:49.717Z,18.27
2019-02-14T14:55:23.958Z,25.57
2019-02-14T14:57:58.056Z,28.80
2019-02-14T15:00:29.385Z,17.83
2019-02-14T15:02:57.777Z,20.33
2019-02-14T15:05:29.137Z,19.33
2019-02-14T15:07:57.534Z,21.10
2019-02-14T15:10:31.669Z,18.97
2019-02-14T15:13:03.229Z,18.43
2019-02-14T15:15:34.833Z,19.97
2019-02-14T15:18:03.221Z,19.27
2019-02-14T15:20:34.530Z,16.93
2019-02-14T15:23:06.081Z,20.07
2019-02-14T15:25:34.472Z,20.30
2019-02-14T15:28:04.523Z,15.53
2019-02-14T15:30:38.673Z,21.33
2019-02-14T15:33:13.045Z,17.77
2019-02-14T15:35:42.729Z,19.93
2019-02-14T15:38:11.936Z,22.13
2019-02-14T15:40:43.997Z,23.13
2019-02-14T15:43:14.049Z,21.00
2019-02-14T15:45:47.990Z,19.77
2019-02-14T15:48:19.348Z,23.63
2019-02-14T15:50:48.035Z,21.73
2019-02-14T15:53:21.470Z,21.70
2019-02-14T15:55:46.772Z,19.20
2019-02-14T15:58:16.132Z,25.37
2019-02-14T16:00:44.784Z,21.43
2019-02-14T16:03:15.298Z,18.40
2019-02-14T16:05:43.289Z,19.33
2019-02-14T16:08:11.683Z,23.77
2019-02-14T16:10:40.178Z,18.23
2019-02-14T16:13:11.275Z,17.63
2019-02-14T16:15:39.657Z,16.87
2019-02-14T16:18:09.186Z,19.17
2019-02-14T16:20:39.794Z,18.87
2019-02-14T16:23:08.245Z,22.77
2019-02-14T16:25:37.178Z,23.30
2019-02-14T16:28:05.557Z,18.97
2019-02-14T16:30:33.970Z,21.83
2019-02-14T16:33:02.617Z,28.60
2019-02-14T16:35:31.009Z,23.87
2019-02-14T16:38:00.717Z,26.63
2019-02-14T16:40:38.192Z,24.60
2019-02-14T16:43:00.909Z,20.37
2019-02-14T16:45:36.778Z,22.90
2019-02-14T16:48:02.601Z,26.07
2019-02-14T16:50:36.386Z,27.40
2019-02-14T16:53:10.340Z,30.40
2019-02-14T16:55:38.805Z,30.50
2019-02-14T16:58:10.129Z,30.97
2019-02-14T17:00:45.965Z,23.73
2019-02-14T17:03:19.845Z,31.97
2019-02-14T17:05:48.232Z,27.50
2019-02-14T17:08:16.629Z,28.43
2019-02-14T17:10:48.066Z,26.40
2019-02-14T17:13:20.525Z,29.57
2019-02-14T17:15:48.989Z,32.00
2019-02-14T17:18:17.383Z,34.30
2019-02-14T17:20:47.084Z,30.10
2019-02-14T17:23:21.188Z,35.53
2019-02-14T17:25:51.228Z,41.27
2019-02-14T17:28:19.613Z,36.57
2019-02-14T17:30:48.259Z,44.27
2019-02-14T17:33:16.883Z,35.73
2019-02-14T17:35:52.919Z,35.80
2019-02-14T17:38:21.307Z,36.40
2019-02-14T17:40:52.621Z,30.50
2019-02-14T17:43:22.657Z,33.97
2019-02-14T17:45:56.572Z,36.67
2019-02-14T17:48:26.630Z,33.27
2019-02-14T17:50:56.028Z,31.30
2019-02-14T17:53:24.653Z,38.20
2019-02-14T17:55:53.036Z,46.10
2019-02-14T17:58:32.213Z,41.63
2019-02-14T18:01:04.909Z,39.90
2019-02-14T18:03:36.413Z,44.90
2019-02-14T18:06:13.364Z,50.77
2019-02-14T18:08:44.442Z,51.60
2019-02-14T18:11:14.730Z,51.80
2019-02-14T18:13:43.117Z,52.53
2019-02-14T18:16:14.172Z,48.77
2019-02-14T18:18:51.521Z,49.80
2019-02-14T18:21:19.907Z,51.33
2019-02-14T18:23:54.407Z,54.27
2019-02-14T18:26:28.721Z,55.17
2019-02-14T18:29:02.722Z,49.33
2019-02-14T18:31:33.829Z,49.37
2019-02-14T18:34:02.226Z,44.10
2019-02-14T18:36:39.141Z,51.67
2019-02-14T18:39:09.862Z,36.73
2019-02-14T18:41:41.204Z,42.37
2019-02-14T18:44:12.679Z,44.13
2019-02-14T18:46:46.619Z,41.83
2019-02-14T18:49:20.442Z,44.03
2019-02-14T18:51:51.506Z,47.30
2019-02-14T18:54:20.137Z,47.43
2019-02-14T18:56:48.532Z,46.17
2019-02-14T18:59:20.045Z,41.87
2019-02-14T19:01:51.121Z,45.00
2019-02-14T19:04:26.606Z,48.23
2019-02-14T19:07:04.977Z,44.63
2019-02-14T19:09:33.590Z,42.37
2019-02-14T19:12:02.676Z,41.40
2019-02-14T19:14:34.005Z,46.40
2019-02-14T19:17:10.770Z,43.37
2019-02-14T19:19:39.406Z,45.57
2019-02-14T19:22:07.818Z,45.97
2019-02-14T19:24:36.202Z,39.03
2019-02-14T19:27:07.611Z,41.93
2019-02-14T19:29:37.647Z,49.83
2019-02-14T19:32:06.029Z,64.47
2019-02-14T19:34:36.138Z,67.27
2019-02-14T19:37:04.537Z,55.07
2019-02-14T19:39:35.589Z,48.40
2019-02-14T19:42:05.781Z,91.47
2019-02-14T19:44:34.169Z,86.27
2019-02-14T19:47:11.514Z,48.40
2019-02-14T19:49:41.549Z,44.70
2019-02-14T19:52:16.025Z,42.90
2019-02-14T19:54:44.422Z,41.17
2019-02-14T19:57:12.817Z,45.73
2019-02-14T19:59:46.199Z,53.27
2019-02-14T20:02:14.586Z,73.23
2019-02-14T20:04:42.972Z,64.07
2019-02-14T20:07:14.302Z,68.17
2019-02-14T20:09:42.747Z,55.87
2019-02-14T20:12:12.771Z,42.73
2019-02-14T20:14:41.171Z,56.43
2019-02-14T20:17:10.749Z,46.30
2019-02-14T20:19:39.146Z,39.90
2019-02-14T20:22:12.042Z,48.23
2019-02-14T20:24:40.638Z,40.17
2019-02-14T20:27:16.678Z,40.50
2019-02-14T20:29:46.713Z,36.97
2019-02-14T20:32:16.739Z,29.80
2019-02-14T20:34:48.082Z,35.50
2019-02-14T20:37:19.351Z,33.63
2019-02-14T20:39:48.555Z,31.90
2019-02-14T20:42:19.864Z,35.67
2019-02-14T20:44:51.237Z,36.20
2019-02-14T20:47:21.330Z,34.03
2019-02-14T20:49:52.785Z,36.57
2019-02-14T20:52:31.658Z,35.77
2019-02-14T20:55:01.709Z,36.93
2019-02-14T20:57:32.972Z,43.50
2019-02-14T21:00:04.142Z,38.37
2019-02-14T21:02:32.552Z,41.57
2019-02-14T21:05:05.169Z,40.63
2019-02-14T21:07:38.944Z,41.43
2019-02-14T21:10:08.489Z,45.53
2019-02-14T21:12:42.777Z,41.70
2019-02-14T21:15:14.121Z,45.57
2019-02-14T21:17:43.809Z,42.37
2019-02-14T21:20:17.027Z,43.97
2019-02-14T21:22:58.855Z,42.70
2019-02-14T21:25:23.338Z,35.80
2019-02-14T21:28:04.350Z,36.40
2019-02-14T21:30:39.970Z,36.77
2019-02-14T21:33:16.982Z,34.20
2019-02-14T21:35:45.442Z,34.97
2019-02-14T21:38:17.153Z,35.30
2019-02-14T21:40:59.130Z,33.83
2019-02-14T21:43:29.913Z,32.33
2019-02-14T21:45:59.957Z,37.50
2019-02-14T21:48:34.114Z,38.20
2019-02-14T21:51:05.186Z,36.97
2019-02-14T21:53:42.004Z,42.97
2019-02-14T21:56:15.041Z,41.70
2019-02-14T21:58:48.978Z,34.73
2019-02-14T22:01:19.110Z,34.87
2019-02-14T22:03:52.113Z,34.43
2019-02-14T22:06:20.492Z,32.13
2019-02-14T22:08:48.901Z,35.83
2019-02-14T22:11:18.541Z,36.10
2019-02-14T22:13:47.043Z,34.37
2019-02-14T22:16:15.482Z,30.10
2019-02-14T22:18:43.880Z,34.80
2019-02-14T22:21:12.333Z,35.30
2019-02-14T22:23:40.738Z,38.70
2019-02-14T22:26:09.126Z,36.50
2019-02-14T22:28:38.561Z,37.03
2019-02-14T22:31:08.246Z,45.13
2019-02-14T22:33:36.637Z,44.73
2019-02-14T22:36:05.703Z,45.47
2019-02-14T22:38:35.633Z,53.30
2019-02-14T22:41:04.037Z,50.73
2019-02-14T22:43:33.451Z,46.87
2019-02-14T22:46:01.922Z,46.83
2019-02-14T22:48:30.448Z,42.17
2019-02-14T22:50:58.833Z,44.57
2019-02-14T22:53:30.401Z,33.17
2019-02-14T22:55:58.987Z,27.93
2019-02-14T22:58:27.373Z,29.00
2019-02-14T23:00:58.738Z,33.67
2019-02-14T23:03:28.330Z,33.37
2019-02-14T23:05:57.433Z,29.40
2019-02-14T23:08:25.830Z,31.20
2019-02-14T23:10:54.237Z,33.13
2019-02-14T23:13:22.620Z,33.07
2019-02-14T23:15:51.055Z,35.30
2019-02-14T23:18:19.692Z,33.00
2019-02-14T23:20:48.094Z,33.53
2019-02-14T23:23:17.501Z,37.63
2019-02-14T23:25:45.901Z,40.77
2019-02-14T23:28:14.290Z,38.10
2019-02-14T23:30:42.689Z,38.53
2019-02-14T23:33:11.087Z,37.40
2019-02-14T23:35:39.485Z,34.87
2019-02-14T23:38:07.881Z,37.13
2019-02-14T23:40:36.274Z,35.50
2019-02-14T23:43:07.422Z,29.83
2019-02-14T23:45:37.269Z,32.40
2019-02-14T23:48:05.976Z,33.73
2019-02-14T23:50:34.614Z,33.47
2019-02-14T23:53:04.235Z,37.43
2019-02-14T23:55:33.574Z,28.03
2019-02-14T23:58:04.585Z,28.87
